KJFK/JFK METAR and TAF weather

Enter ICAO airport designator
Station Type Date Time Source
KJFK METAR 2019/06/16 04:51 UTC NOAA

KJFK 160451Z 19007KT 10SM FEW095 BKN120 OVC150 19/17 A2996 RMK AO2 RAE0352 SLP144 P0000 T01940167 402390128


Station Type Date Time Source
KJFK Decoded METAR 2019/06/16 04:51 UTC NOAA

KENNEDY INTERNATIONAL AIRPORT , NY, United States (KJFK) 40-38N 073-46W 9M
Jun 16, 2019 - 12:51 AM EDT / 2019.06.16 0451 UTC
Wind: from the S (190 degrees) at 8 MPH (7 KT):0
Visibility: 10 mile(s):0
Sky conditions: overcast
Precipitation last hour: A trace
Temperature: 66.9 F (19.4 C)
Dew Point: 62.1 F (16.7 C)
Relative Humidity: 84%
Pressure (altimeter): 29.96 in. Hg (1014 hPa)
ob: KJFK 160451Z 19007KT 10SM FEW095 BKN120 OVC150 19/17 A2996 RMK AO2 RAE0352 SLP144 P0000 T01940167 402390128
cycle: 5

Station Type Date Time Source
KJFK TAF 2019/06/16 03:54 UTC NOAA

TAF
AMD KJFK 160248Z 1603/1706 20014KT P6SM VCSH BKN120
FM160800 21010KT P6SM VCSH BKN120
FM161500 19013KT P6SM SCT050 BKN120
FM161900 18015G21KT P6SM VCSH BKN060
FM162200 24008KT 6SM -SHRA BR BKN040
FM170400 30006KT P6SM SCT040 BKN100

Example: see airport list